Sunday, June 17, 2018, 9:53 PM EDT
Back to Local

KIAD, Dulles International Airport

Location: Chantilly, VA, United States Lat: 38.933
Local Time: 9:53 PM EDT ( 1:53 GMT) Lon: -77.45
Time Zone: US/Eastern Elev: 311 ft

Show me the last for .
Show Decoded

2018-06-17 20:52 METAR KIAD 180052Z 13003KT 10SM FEW055 BKN075 BKN120 25/22 A3006 RMK AO2 SLP176
                 T02500222 =
2018-06-17 19:52 METAR KIAD 172352Z 30006KT 10SM SCT045 BKN085 BKN160 28/22 A3005 RMK AO2 SLP174
                 T02780217 10311 20278 55001 =
2018-06-17 18:52 METAR KIAD 172252Z 15004KT 10SM BKN046 BKN085 OVC220 28/20 A3005 RMK AO2 SLP172
                 T02830200 =
2018-06-17 17:52 METAR KIAD 172152Z 27005KT 10SM BKN075 BKN160 31/21 A3005 RMK AO2 SLP171
                 T03110206 =
2018-06-17 16:52 METAR KIAD 172052Z 12004KT 10SM SCT055 BKN085 BKN160 30/21 A3005 RMK AO2 SLP173
                 T03000206 58009 =
2018-06-17 15:52 METAR KIAD 171952Z 30007KT 10SM SCT045 BKN090 BKN150 31/21 A3007 RMK AO2 SLP177
                 T03060211 =
2018-06-17 14:52 METAR KIAD 171852Z 30008KT 10SM SCT048 BKN100 BKN140 29/22 A3007 RMK AO2 SLP181
                 TCU DSNT E-SE T02890217 =
2018-06-17 13:52 METAR KIAD 171752Z 00000KT 10SM SCT070 BKN095 BKN120 30/18 A3008 RMK AO2 SLP183
                 T03000178 10306 20228 58007 =
2018-06-17 12:52 METAR KIAD 171652Z 23003KT 10SM FEW050 SCT070 BKN140 BKN200 29/19 A3010 RMK AO2
                 SLP188 T02940189 =
2018-06-17 11:52 METAR KIAD 171552Z 00000KT 10SM FEW040 SCT070 BKN120 BKN250 29/19 A3010 RMK AO2
                 SLP188 T02940189 =
2018-06-17 10:52 METAR KIAD 171452Z 04003KT 10SM BKN070 BKN110 28/19 A3010 RMK AO2 SLP191
                 T02780194 51010 =
2018-06-17 09:52 METAR KIAD 171352Z 02003KT 10SM BKN085 BKN120 BKN250 26/19 A3010 RMK AO2 SLP189
                 T02610189 =
2018-06-17 08:52 METAR KIAD 171252Z 00000KT 10SM BKN095 BKN120 BKN250 25/19 A3009 RMK AO2 SLP188
                 T02500189 =
2018-06-17 07:52 METAR KIAD 171152Z 00000KT 10SM BKN110 BKN140 BKN250 23/19 A3007 RMK AO2 SLP181
                 T02330189 10233 20200 53013 =
2018-06-17 06:52 METAR KIAD 171052Z 28003KT 10SM FEW110 BKN140 BKN250 21/19 A3006 RMK AO2 SLP176
                 T02110189 =
2018-06-17 05:52 METAR KIAD 170952Z 00000KT 10SM BKN140 BKN250 21/18 A3004 RMK AO2 SLP170
                 T02060183 =
2018-06-17 04:52 METAR KIAD 170852Z 16003KT 10SM BKN100 OVC130 22/18 A3003 RMK AO2 SLP167
                 T02170178 56004 =
2018-06-17 03:52 METAR KIAD 170752Z 00000KT 10SM FEW080 OVC130 22/17 A3004 RMK AO2 SLP167
                 T02220172 =
2018-06-17 02:52 METAR KIAD 170652Z 15003KT 10SM FEW080 SCT090 OVC120 22/17 A3004 RMK AO2 SLP169
                 T02220167 =
2018-06-17 01:52 METAR KIAD 170552Z 00000KT 10SM SCT090 SCT110 OVC130 22/18 A3005 RMK AO2
                 RAB14E23 SLP171 P0000 60000 T02170183 10272 20206 50001 =
2018-06-17 00:52 METAR KIAD 170452Z 00000KT 10SM BKN085 OVC110 22/18 A3006 RMK AO2 SLP175
                 T02170178 403000122 =
2018-06-16 23:52 METAR KIAD 170352Z 13004KT 10SM FEW085 BKN130 22/17 A3006 RMK AO2 SLP175
                 T02170167 =
2018-06-16 22:52 METAR KIAD 170252Z 15003KT 10SM FEW120 SCT250 21/17 A3004 RMK AO2 SLP170
                 T02110167 53010 =

Support USWX by starting your Amazon purchase here.